sensor_id;sensor_type;location;lat;lon;timestamp;temperature;humidity
20998;DHT22;10657;51.276;6.390;2023-02-03T00:01:44;8.70;99.90
20998;DHT22;10657;51.276;6.390;2023-02-03T00:04:11;8.70;99.90
20998;DHT22;10657;51.276;6.390;2023-02-03T00:06:37;8.70;99.90
20998;DHT22;10657;51.276;6.390;2023-02-03T00:09:04;8.70;99.90
20998;DHT22;10657;51.276;6.390;2023-02-03T00:11:31;8.80;99.90
20998;DHT22;10657;51.276;6.390;2023-02-03T00:13:58;8.80;99.90
20998;DHT22;10657;51.276;6.390;2023-02-03T00:16:24;8.70;99.90
20998;DHT22;10657;51.276;6.390;2023-02-03T00:18:51;8.80;99.90
20998;DHT22;10657;51.276;6.390;2023-02-03T00:21:18;8.80;99.90
20998;DHT22;10657;51.276;6.390;2023-02-03T00:23:45;8.70;99.90
20998;DHT22;10657;51.276;6.390;2023-02-03T00:26:14;8.70;99.90
20998;DHT22;10657;51.276;6.390;2023-02-03T00:28:41;8.80;99.90
20998;DHT22;10657;51.276;6.390;2023-02-03T00:33:42;8.80;99.90
20998;DHT22;10657;51.276;6.390;2023-02-03T00:36:09;8.80;99.90
20998;DHT22;10657;51.276;6.390;2023-02-03T00:38:36;8.80;99.90
20998;DHT22;10657;51.276;6.390;2023-02-03T00:41:02;8.80;99.90
20998;DHT22;10657;51.276;6.390;2023-02-03T00:43:29;8.80;99.90
20998;DHT22;10657;51.276;6.390;2023-02-03T00:45:56;8.80;99.90
20998;DHT22;10657;51.276;6.390;2023-02-03T00:48:23;8.80;99.90
20998;DHT22;10657;51.276;6.390;2023-02-03T00:50:49;8.80;99.90
20998;DHT22;10657;51.276;6.390;2023-02-03T00:53:16;8.80;99.90
20998;DHT22;10657;51.276;6.390;2023-02-03T00:55:43;8.80;99.90
20998;DHT22;10657;51.276;6.390;2023-02-03T00:58:10;8.80;99.90
20998;DHT22;10657;51.276;6.390;2023-02-03T01:00:36;8.80;99.90
20998;DHT22;10657;51.276;6.390;2023-02-03T01:03:03;8.80;99.90
20998;DHT22;10657;51.276;6.390;2023-02-03T01:05:30;8.80;99.90
20998;DHT22;10657;51.276;6.390;2023-02-03T01:07:57;8.80;99.90
20998;DHT22;10657;51.276;6.390;2023-02-03T01:10:23;8.80;99.90
20998;DHT22;10657;51.276;6.390;2023-02-03T01:12:50;8.80;99.90
20998;DHT22;10657;51.276;6.390;2023-02-03T01:15:17;8.80;99.90
20998;DHT22;10657;51.276;6.390;2023-02-03T01:17:44;8.80;99.90
20998;DHT22;10657;51.276;6.390;2023-02-03T01:20:11;8.80;99.90
20998;DHT22;10657;51.276;6.390;2023-02-03T01:22:39;8.80;99.90
20998;DHT22;10657;51.276;6.390;2023-02-03T01:25:06;8.80;99.90
20998;DHT22;10657;51.276;6.390;2023-02-03T01:27:33;8.80;99.90
20998;DHT22;10657;51.276;6.390;2023-02-03T01:30:00;8.80;99.90
20998;DHT22;10657;51.276;6.390;2023-02-03T01:32:26;8.90;99.90
20998;DHT22;10657;51.276;6.390;2023-02-03T01:34:53;8.90;99.90
20998;DHT22;10657;51.276;6.390;2023-02-03T01:37:20;8.80;99.90
20998;DHT22;10657;51.276;6.390;2023-02-03T01:39:46;8.90;99.90
20998;DHT22;10657;51.276;6.390;2023-02-03T01:42:14;8.80;99.90
20998;DHT22;10657;51.276;6.390;2023-02-03T01:44:48;8.80;99.90
20998;DHT22;10657;51.276;6.390;2023-02-03T01:47:48;8.80;99.90
20998;DHT22;10657;51.276;6.390;2023-02-03T01:50:17;8.80;99.90
20998;DHT22;10657;51.276;6.390;2023-02-03T01:52:52;8.90;99.90
20998;DHT22;10657;51.276;6.390;2023-02-03T01:55:22;8.90;99.90
20998;DHT22;10657;51.276;6.390;2023-02-03T01:57:58;8.90;99.90
20998;DHT22;10657;51.276;6.390;2023-02-03T02:00:26;8.90;99.90
20998;DHT22;10657;51.276;6.390;2023-02-03T02:02:54;8.90;99.90
20998;DHT22;10657;51.276;6.390;2023-02-03T02:06:03;8.90;99.90
20998;DHT22;10657;51.276;6.390;2023-02-03T02:08:30;8.90;99.90
20998;DHT22;10657;51.276;6.390;2023-02-03T02:10:58;8.90;99.90
20998;DHT22;10657;51.276;6.390;2023-02-03T02:13:26;8.90;99.90
20998;DHT22;10657;51.276;6.390;2023-02-03T02:39:04;9.00;99.90
20998;DHT22;10657;51.276;6.390;2023-02-03T02:43:41;9.00;99.90
20998;DHT22;10657;51.276;6.390;2023-02-03T02:46:17;9.00;99.90
20998;DHT22;10657;51.276;6.390;2023-02-03T02:49:08;9.00;99.90
20998;DHT22;10657;51.276;6.390;2023-02-03T02:51:38;9.00;99.90
20998;DHT22;10657;51.276;6.390;2023-02-03T02:54:09;9.00;99.90
20998;DHT22;10657;51.276;6.390;2023-02-03T02:56:38;9.00;99.90
20998;DHT22;10657;51.276;6.390;2023-02-03T02:59:06;9.00;99.90
20998;DHT22;10657;51.276;6.390;2023-02-03T03:01:33;9.00;99.90
20998;DHT22;10657;51.276;6.390;2023-02-03T03:04:03;9.00;99.90
20998;DHT22;10657;51.276;6.390;2023-02-03T03:06:43;9.00;99.90
20998;DHT22;10657;51.276;6.390;2023-02-03T03:09:19;9.00;99.90
20998;DHT22;10657;51.276;6.390;2023-02-03T03:11:50;9.00;99.90
20998;DHT22;10657;51.276;6.390;2023-02-03T03:14:19;9.00;99.90
20998;DHT22;10657;51.276;6.390;2023-02-03T03:16:52;9.00;99.90
20998;DHT22;10657;51.276;6.390;2023-02-03T03:19:25;9.00;99.90
20998;DHT22;10657;51.276;6.390;2023-02-03T03:21:56;9.00;99.90
20998;DHT22;10657;51.276;6.390;2023-02-03T03:24:29;9.00;99.90
20998;DHT22;10657;51.276;6.390;2023-02-03T03:26:58;9.00;99.90
20998;DHT22;10657;51.276;6.390;2023-02-03T03:29:35;9.00;99.90
20998;DHT22;10657;51.276;6.390;2023-02-03T03:32:03;9.00;99.90
20998;DHT22;10657;51.276;6.390;2023-02-03T03:34:31;9.00;99.90
20998;DHT22;10657;51.276;6.390;2023-02-03T03:40:09;9.00;99.90
20998;DHT22;10657;51.276;6.390;2023-02-03T03:42:44;8.90;99.90
20998;DHT22;10657;51.276;6.390;2023-02-03T03:48:34;8.90;99.90
20998;DHT22;10657;51.276;6.390;2023-02-03T03:51:07;9.00;99.90
20998;DHT22;10657;51.276;6.390;2023-02-03T03:53:37;8.90;99.90
20998;DHT22;10657;51.276;6.390;2023-02-03T03:56:07;9.00;99.90
20998;DHT22;10657;51.276;6.390;2023-02-03T03:58:37;9.00;99.90
20998;DHT22;10657;51.276;6.390;2023-02-03T04:01:06;9.00;99.90
20998;DHT22;10657;51.276;6.390;2023-02-03T04:03:48;9.00;99.90
20998;DHT22;10657;51.276;6.390;2023-02-03T04:06:15;9.00;99.90
20998;DHT22;10657;51.276;6.390;2023-02-03T04:08:42;9.00;99.90
20998;DHT22;10657;51.276;6.390;2023-02-03T04:11:09;9.00;99.90
20998;DHT22;10657;51.276;6.390;2023-02-03T04:13:35;9.00;99.90
20998;DHT22;10657;51.276;6.390;2023-02-03T04:16:02;9.00;99.90
20998;DHT22;10657;51.276;6.390;2023-02-03T04:18:29;9.00;99.90
20998;DHT22;10657;51.276;6.390;2023-02-03T04:20:55;9.00;99.90
20998;DHT22;10657;51.276;6.390;2023-02-03T04:23:22;9.00;99.90
20998;DHT22;10657;51.276;6.390;2023-02-03T04:25:48;9.00;99.90
20998;DHT22;10657;51.276;6.390;2023-02-03T04:28:15;9.00;99.90
20998;DHT22;10657;51.276;6.390;2023-02-03T04:30:42;9.00;99.90
20998;DHT22;10657;51.276;6.390;2023-02-03T04:33:08;9.00;99.90
20998;DHT22;10657;51.276;6.390;2023-02-03T04:35:35;9.00;99.90
20998;DHT22;10657;51.276;6.390;2023-02-03T04:38:03;9.00;99.90
20998;DHT22;10657;51.276;6.390;2023-02-03T04:40:29;9.00;99.90
20998;DHT22;10657;51.276;6.390;2023-02-03T04:42:56;9.00;99.90
20998;DHT22;10657;51.276;6.390;2023-02-03T04:45:22;9.00;99.90
20998;DHT22;10657;51.276;6.390;2023-02-03T04:47:52;9.00;99.90
20998;DHT22;10657;51.276;6.390;2023-02-03T04:50:20;9.00;99.90
20998;DHT22;10657;51.276;6.390;2023-02-03T04:52:46;9.00;99.90
20998;DHT22;10657;51.276;6.390;2023-02-03T04:55:13;9.10;99.90
20998;DHT22;10657;51.276;6.390;2023-02-03T04:57:40;9.10;99.90
20998;DHT22;10657;51.276;6.390;2023-02-03T05:00:07;9.10;99.90
20998;DHT22;10657;51.276;6.390;2023-02-03T05:02:34;9.10;99.90
20998;DHT22;10657;51.276;6.390;2023-02-03T05:05:00;9.00;99.90
20998;DHT22;10657;51.276;6.390;2023-02-03T05:07:27;9.00;99.90
20998;DHT22;10657;51.276;6.390;2023-02-03T05:09:53;9.10;99.90
20998;DHT22;10657;51.276;6.390;2023-02-03T05:12:20;9.10;99.90
20998;DHT22;10657;51.276;6.390;2023-02-03T05:14:47;9.10;99.90
20998;DHT22;10657;51.276;6.390;2023-02-03T05:17:13;9.00;99.90
20998;DHT22;10657;51.276;6.390;2023-02-03T05:19:40;9.00;99.90
20998;DHT22;10657;51.276;6.390;2023-02-03T05:22:07;9.10;99.90
20998;DHT22;10657;51.276;6.390;2023-02-03T05:24:33;9.00;99.90
20998;DHT22;10657;51.276;6.390;2023-02-03T05:27:00;9.10;99.90
20998;DHT22;10657;51.276;6.390;2023-02-03T05:29:26;9.10;99.90
20998;DHT22;10657;51.276;6.390;2023-02-03T05:31:53;9.10;99.90
20998;DHT22;10657;51.276;6.390;2023-02-03T05:34:20;9.10;99.90
20998;DHT22;10657;51.276;6.390;2023-02-03T05:36:46;9.10;99.90
20998;DHT22;10657;51.276;6.390;2023-02-03T05:39:13;9.10;99.90
20998;DHT22;10657;51.276;6.390;2023-02-03T05:41:39;9.10;99.90
20998;DHT22;10657;51.276;6.390;2023-02-03T05:44:23;9.10;99.90
20998;DHT22;10657;51.276;6.390;2023-02-03T05:46:52;9.10;99.90
20998;DHT22;10657;51.276;6.390;2023-02-03T05:49:19;9.10;99.90
20998;DHT22;10657;51.276;6.390;2023-02-03T05:51:49;9.10;99.90
20998;DHT22;10657;51.276;6.390;2023-02-03T05:54:16;9.10;99.90
20998;DHT22;10657;51.276;6.390;2023-02-03T05:56:43;9.10;99.90
20998;DHT22;10657;51.276;6.390;2023-02-03T05:59:09;9.10;99.90
20998;DHT22;10657;51.276;6.390;2023-02-03T06:01:36;9.10;99.90
20998;DHT22;10657;51.276;6.390;2023-02-03T06:04:03;9.10;99.90
20998;DHT22;10657;51.276;6.390;2023-02-03T06:06:30;9.10;99.90
20998;DHT22;10657;51.276;6.390;2023-02-03T06:09:02;9.10;99.90
20998;DHT22;10657;51.276;6.390;2023-02-03T06:11:29;9.10;99.90
20998;DHT22;10657;51.276;6.390;2023-02-03T06:13:57;9.10;99.90
20998;DHT22;10657;51.276;6.390;2023-02-03T06:16:27;9.10;99.90
20998;DHT22;10657;51.276;6.390;2023-02-03T06:18:55;9.10;99.90
20998;DHT22;10657;51.276;6.390;2023-02-03T06:21:26;9.10;99.90
20998;DHT22;10657;51.276;6.390;2023-02-03T06:23:53;9.10;99.90
20998;DHT22;10657;51.276;6.390;2023-02-03T06:26:21;9.10;99.90
20998;DHT22;10657;51.276;6.390;2023-02-03T06:28:47;9.20;99.90
20998;DHT22;10657;51.276;6.390;2023-02-03T06:31:14;9.20;99.90
20998;DHT22;10657;51.276;6.390;2023-02-03T06:33:41;9.10;99.90
20998;DHT22;10657;51.276;6.390;2023-02-03T06:36:08;9.10;99.90
20998;DHT22;10657;51.276;6.390;2023-02-03T06:38:35;9.10;99.90
20998;DHT22;10657;51.276;6.390;2023-02-03T06:41:01;9.10;99.90
20998;DHT22;10657;51.276;6.390;2023-02-03T06:43:28;9.10;99.90
20998;DHT22;10657;51.276;6.390;2023-02-03T06:45:55;9.10;99.90
20998;DHT22;10657;51.276;6.390;2023-02-03T06:48:21;9.10;99.90
20998;DHT22;10657;51.276;6.390;2023-02-03T06:50:49;9.10;99.90
20998;DHT22;10657;51.276;6.390;2023-02-03T06:53:16;9.10;99.90
20998;DHT22;10657;51.276;6.390;2023-02-03T06:55:42;9.10;99.90
20998;DHT22;10657;51.276;6.390;2023-02-03T06:58:09;9.00;99.90
20998;DHT22;10657;51.276;6.390;2023-02-03T07:00:36;9.10;99.90
20998;DHT22;10657;51.276;6.390;2023-02-03T07:03:02;9.10;99.90
20998;DHT22;10657;51.276;6.390;2023-02-03T07:05:29;9.10;99.90
20998;DHT22;10657;51.276;6.390;2023-02-03T07:07:56;9.10;99.90
20998;DHT22;10657;51.276;6.390;2023-02-03T07:10:24;9.10;99.90
20998;DHT22;10657;51.276;6.390;2023-02-03T07:12:51;9.10;99.90
20998;DHT22;10657;51.276;6.390;2023-02-03T07:15:18;9.10;99.90
20998;DHT22;10657;51.276;6.390;2023-02-03T07:17:46;9.00;99.90
20998;DHT22;10657;51.276;6.390;2023-02-03T07:20:20;9.10;99.90
20998;DHT22;10657;51.276;6.390;2023-02-03T07:22:51;9.10;99.90
20998;DHT22;10657;51.276;6.390;2023-02-03T07:25:18;9.10;99.90
20998;DHT22;10657;51.276;6.390;2023-02-03T07:27:45;9.10;99.90
20998;DHT22;10657;51.276;6.390;2023-02-03T07:30:12;9.10;99.90
20998;DHT22;10657;51.276;6.390;2023-02-03T07:32:39;9.10;99.90
20998;DHT22;10657;51.276;6.390;2023-02-03T07:35:05;9.10;99.90
20998;DHT22;10657;51.276;6.390;2023-02-03T07:37:33;9.10;99.90
20998;DHT22;10657;51.276;6.390;2023-02-03T07:40:00;9.10;99.90
20998;DHT22;10657;51.276;6.390;2023-02-03T07:42:27;9.10;99.90
20998;DHT22;10657;51.276;6.390;2023-02-03T07:44:53;9.10;99.90
20998;DHT22;10657;51.276;6.390;2023-02-03T07:47:20;9.10;99.90
20998;DHT22;10657;51.276;6.390;2023-02-03T07:49:46;9.20;99.90
20998;DHT22;10657;51.276;6.390;2023-02-03T07:52:13;9.20;99.90
20998;DHT22;10657;51.276;6.390;2023-02-03T07:54:40;9.20;99.90
20998;DHT22;10657;51.276;6.390;2023-02-03T07:57:06;9.10;99.90
20998;DHT22;10657;51.276;6.390;2023-02-03T07:59:33;9.10;99.90
20998;DHT22;10657;51.276;6.390;2023-02-03T08:01:59;9.20;99.90
20998;DHT22;10657;51.276;6.390;2023-02-03T08:04:26;9.20;99.90
20998;DHT22;10657;51.276;6.390;2023-02-03T08:06:53;9.20;99.90
20998;DHT22;10657;51.276;6.390;2023-02-03T08:09:19;9.20;99.90
20998;DHT22;10657;51.276;6.390;2023-02-03T08:11:46;9.20;99.90
20998;DHT22;10657;51.276;6.390;2023-02-03T08:14:14;9.20;99.90
20998;DHT22;10657;51.276;6.390;2023-02-03T08:16:40;9.20;99.90
20998;DHT22;10657;51.276;6.390;2023-02-03T08:19:07;9.20;99.90
20998;DHT22;10657;51.276;6.390;2023-02-03T08:21:33;9.10;99.90
20998;DHT22;10657;51.276;6.390;2023-02-03T08:24:01;9.20;99.90
20998;DHT22;10657;51.276;6.390;2023-02-03T08:26:27;9.20;99.90
20998;DHT22;10657;51.276;6.390;2023-02-03T08:28:54;9.20;99.90
20998;DHT22;10657;51.276;6.390;2023-02-03T08:31:21;9.20;99.90
20998;DHT22;10657;51.276;6.390;2023-02-03T08:33:48;9.20;99.90
20998;DHT22;10657;51.276;6.390;2023-02-03T08:36:15;9.20;99.90
20998;DHT22;10657;51.276;6.390;2023-02-03T08:38:43;9.20;99.90
20998;DHT22;10657;51.276;6.390;2023-02-03T08:41:12;9.20;99.90
20998;DHT22;10657;51.276;6.390;2023-02-03T08:43:39;9.20;99.90
20998;DHT22;10657;51.276;6.390;2023-02-03T08:46:08;9.20;99.90
20998;DHT22;10657;51.276;6.390;2023-02-03T08:48:35;9.10;99.90
20998;DHT22;10657;51.276;6.390;2023-02-03T08:51:09;9.10;99.90
20998;DHT22;10657;51.276;6.390;2023-02-03T08:53:36;9.10;99.90
20998;DHT22;10657;51.276;6.390;2023-02-03T08:56:08;9.00;99.90
20998;DHT22;10657;51.276;6.390;2023-02-03T08:58:35;8.90;99.90
20998;DHT22;10657;51.276;6.390;2023-02-03T09:01:10;8.90;99.90
20998;DHT22;10657;51.276;6.390;2023-02-03T09:03:37;8.80;99.90
20998;DHT22;10657;51.276;6.390;2023-02-03T09:06:06;8.80;99.90
20998;DHT22;10657;51.276;6.390;2023-02-03T09:08:33;8.80;99.90
20998;DHT22;10657;51.276;6.390;2023-02-03T09:10:59;8.70;99.90
20998;DHT22;10657;51.276;6.390;2023-02-03T09:13:26;8.70;99.90
20998;DHT22;10657;51.276;6.390;2023-02-03T09:15:53;8.70;99.90
20998;DHT22;10657;51.276;6.390;2023-02-03T09:18:19;8.70;99.90
20998;DHT22;10657;51.276;6.390;2023-02-03T09:20:46;8.70;99.90
20998;DHT22;10657;51.276;6.390;2023-02-03T09:23:12;8.70;99.90
20998;DHT22;10657;51.276;6.390;2023-02-03T09:25:39;8.70;99.90
20998;DHT22;10657;51.276;6.390;2023-02-03T09:28:06;8.70;99.90
20998;DHT22;10657;51.276;6.390;2023-02-03T09:30:32;8.70;99.90
20998;DHT22;10657;51.276;6.390;2023-02-03T09:32:59;8.70;99.90
20998;DHT22;10657;51.276;6.390;2023-02-03T09:35:26;8.70;99.90
20998;DHT22;10657;51.276;6.390;2023-02-03T09:37:54;8.70;99.90
20998;DHT22;10657;51.276;6.390;2023-02-03T09:40:26;8.60;99.90
20998;DHT22;10657;51.276;6.390;2023-02-03T09:43:06;8.60;99.90
20998;DHT22;10657;51.276;6.390;2023-02-03T09:45:38;8.60;99.90
20998;DHT22;10657;51.276;6.390;2023-02-03T09:48:20;8.60;99.90
20998;DHT22;10657;51.276;6.390;2023-02-03T09:50:49;8.60;99.90
20998;DHT22;10657;51.276;6.390;2023-02-03T09:53:41;8.50;99.90
20998;DHT22;10657;51.276;6.390;2023-02-03T09:56:32;8.50;99.90
20998;DHT22;10657;51.276;6.390;2023-02-03T09:59:00;8.50;99.90
20998;DHT22;10657;51.276;6.390;2023-02-03T10:04:27;8.50;99.90
20998;DHT22;10657;51.276;6.390;2023-02-03T10:07:10;8.50;99.90
20998;DHT22;10657;51.276;6.390;2023-02-03T10:09:49;8.50;99.90
20998;DHT22;10657;51.276;6.390;2023-02-03T10:18:01;8.50;99.90
20998;DHT22;10657;51.276;6.390;2023-02-03T10:20:46;8.50;99.90
20998;DHT22;10657;51.276;6.390;2023-02-03T10:23:19;8.60;99.90
20998;DHT22;10657;51.276;6.390;2023-02-03T10:25:53;8.50;99.90
20998;DHT22;10657;51.276;6.390;2023-02-03T10:28:29;8.60;99.90
20998;DHT22;10657;51.276;6.390;2023-02-03T10:30:57;8.60;99.90
20998;DHT22;10657;51.276;6.390;2023-02-03T10:33:27;8.60;99.90
20998;DHT22;10657;51.276;6.390;2023-02-03T10:36:46;8.60;99.90
20998;DHT22;10657;51.276;6.390;2023-02-03T10:41:40;8.70;99.90
20998;DHT22;10657;51.276;6.390;2023-02-03T10:44:09;8.70;99.90
20998;DHT22;10657;51.276;6.390;2023-02-03T10:46:40;8.70;99.90
20998;DHT22;10657;51.276;6.390;2023-02-03T10:49:09;8.70;99.90
20998;DHT22;10657;51.276;6.390;2023-02-03T10:51:47;8.80;99.90
20998;DHT22;10657;51.276;6.390;2023-02-03T10:54:31;8.80;99.90
20998;DHT22;10657;51.276;6.390;2023-02-03T10:57:10;8.80;99.90
20998;DHT22;10657;51.276;6.390;2023-02-03T10:59:41;8.80;99.90
20998;DHT22;10657;51.276;6.390;2023-02-03T11:02:20;8.80;99.90
20998;DHT22;10657;51.276;6.390;2023-02-03T11:04:47;8.90;99.90
20998;DHT22;10657;51.276;6.390;2023-02-03T11:07:25;8.90;99.90
20998;DHT22;10657;51.276;6.390;2023-02-03T11:09:52;8.90;99.90
20998;DHT22;10657;51.276;6.390;2023-02-03T11:12:19;8.90;99.90
20998;DHT22;10657;51.276;6.390;2023-02-03T11:14:50;9.00;99.90
20998;DHT22;10657;51.276;6.390;2023-02-03T11:17:24;9.00;99.90
20998;DHT22;10657;51.276;6.390;2023-02-03T11:19:54;9.00;99.90
20998;DHT22;10657;51.276;6.390;2023-02-03T11:22:51;9.10;99.90
20998;DHT22;10657;51.276;6.390;2023-02-03T11:25:26;9.10;99.90
20998;DHT22;10657;51.276;6.390;2023-02-03T11:27:55;9.10;99.90
20998;DHT22;10657;51.276;6.390;2023-02-03T11:30:27;9.10;99.90
20998;DHT22;10657;51.276;6.390;2023-02-03T11:33:00;9.20;99.90
20998;DHT22;10657;51.276;6.390;2023-02-03T11:35:28;9.20;99.90
20998;DHT22;10657;51.276;6.390;2023-02-03T11:37:59;9.30;99.90
20998;DHT22;10657;51.276;6.390;2023-02-03T11:40:28;9.40;99.90
20998;DHT22;10657;51.276;6.390;2023-02-03T11:45:39;9.40;99.90
20998;DHT22;10657;51.276;6.390;2023-02-03T11:48:30;9.40;99.90
20998;DHT22;10657;51.276;6.390;2023-02-03T11:59:02;9.60;99.90
20998;DHT22;10657;51.276;6.390;2023-02-03T12:10:36;9.70;99.90
20998;DHT22;10657;51.276;6.390;2023-02-03T12:13:37;9.70;99.90
20998;DHT22;10657;51.276;6.390;2023-02-03T12:24:22;9.80;99.90
20998;DHT22;10657;51.276;6.390;2023-02-03T12:29:54;9.80;99.90
20998;DHT22;10657;51.276;6.390;2023-02-03T12:32:45;9.80;99.90
20998;DHT22;10657;51.276;6.390;2023-02-03T12:35:28;9.80;99.90
20998;DHT22;10657;51.276;6.390;2023-02-03T12:38:02;9.80;99.90
20998;DHT22;10657;51.276;6.390;2023-02-03T12:40:41;9.90;99.90
20998;DHT22;10657;51.276;6.390;2023-02-03T12:43:40;9.90;99.90
20998;DHT22;10657;51.276;6.390;2023-02-03T12:46:17;9.90;99.90
20998;DHT22;10657;51.276;6.390;2023-02-03T12:51:41;9.90;99.90
20998;DHT22;10657;51.276;6.390;2023-02-03T12:56:43;10.00;99.90
20998;DHT22;10657;51.276;6.390;2023-02-03T12:59:19;9.90;99.90
20998;DHT22;10657;51.276;6.390;2023-02-03T13:01:55;9.90;99.90
20998;DHT22;10657;51.276;6.390;2023-02-03T13:07:11;10.00;99.90
20998;DHT22;10657;51.276;6.390;2023-02-03T13:10:00;10.00;99.90
20998;DHT22;10657;51.276;6.390;2023-02-03T13:12:32;10.00;99.90
20998;DHT22;10657;51.276;6.390;2023-02-03T13:15:39;10.00;99.90
20998;DHT22;10657;51.276;6.390;2023-02-03T13:20:56;10.10;99.90
20998;DHT22;10657;51.276;6.390;2023-02-03T13:23:23;10.00;99.90
20998;DHT22;10657;51.276;6.390;2023-02-03T13:37:59;10.10;99.90
20998;DHT22;10657;51.276;6.390;2023-02-03T13:40:52;10.10;99.90
20998;DHT22;10657;51.276;6.390;2023-02-03T13:43:18;10.10;99.90
20998;DHT22;10657;51.276;6.390;2023-02-03T13:46:04;10.10;99.90
20998;DHT22;10657;51.276;6.390;2023-02-03T13:48:34;10.10;99.90
20998;DHT22;10657;51.276;6.390;2023-02-03T13:53:36;10.10;99.90
20998;DHT22;10657;51.276;6.390;2023-02-03T13:56:07;10.10;99.90
20998;DHT22;10657;51.276;6.390;2023-02-03T13:58:38;10.10;99.90
20998;DHT22;10657;51.276;6.390;2023-02-03T14:01:25;10.10;99.90
20998;DHT22;10657;51.276;6.390;2023-02-03T14:03:53;10.10;99.90
20998;DHT22;10657;51.276;6.390;2023-02-03T14:20:33;10.30;99.90
20998;DHT22;10657;51.276;6.390;2023-02-03T14:23:33;10.30;99.90
20998;DHT22;10657;51.276;6.390;2023-02-03T14:25:57;10.30;99.90
20998;DHT22;10657;51.276;6.390;2023-02-03T14:28:40;10.30;99.90
20998;DHT22;10657;51.276;6.390;2023-02-03T14:36:33;10.30;99.90
20998;DHT22;10657;51.276;6.390;2023-02-03T14:56:09;10.40;99.90
20998;DHT22;10657;51.276;6.390;2023-02-03T14:58:40;10.40;99.90
20998;DHT22;10657;51.276;6.390;2023-02-03T15:01:22;10.40;99.90
20998;DHT22;10657;51.276;6.390;2023-02-03T15:09:30;10.50;99.90
20998;DHT22;10657;51.276;6.390;2023-02-03T15:11:58;10.50;99.90
20998;DHT22;10657;51.276;6.390;2023-02-03T15:14:27;10.50;99.90
20998;DHT22;10657;51.276;6.390;2023-02-03T15:16:59;10.50;99.90
20998;DHT22;10657;51.276;6.390;2023-02-03T15:19:32;10.50;99.90
20998;DHT22;10657;51.276;6.390;2023-02-03T15:21:59;10.50;99.90
20998;DHT22;10657;51.276;6.390;2023-02-03T15:24:34;10.40;99.90
20998;DHT22;10657;51.276;6.390;2023-02-03T15:27:01;10.40;99.90
20998;DHT22;10657;51.276;6.390;2023-02-03T15:29:32;10.30;99.90
20998;DHT22;10657;51.276;6.390;2023-02-03T15:32:11;10.20;99.90
20998;DHT22;10657;51.276;6.390;2023-02-03T15:34:57;10.00;99.90
20998;DHT22;10657;51.276;6.390;2023-02-03T15:40:25;9.90;99.90
20998;DHT22;10657;51.276;6.390;2023-02-03T15:45:36;9.80;99.90
20998;DHT22;10657;51.276;6.390;2023-02-03T15:50:47;9.70;99.90
20998;DHT22;10657;51.276;6.390;2023-02-03T15:53:23;9.70;99.90
20998;DHT22;10657;51.276;6.390;2023-02-03T15:56:03;9.60;99.90
20998;DHT22;10657;51.276;6.390;2023-02-03T15:58:44;9.60;99.90
20998;DHT22;10657;51.276;6.390;2023-02-03T16:01:13;9.60;99.90
20998;DHT22;10657;51.276;6.390;2023-02-03T16:03:49;9.60;99.90
20998;DHT22;10657;51.276;6.390;2023-02-03T16:06:38;9.50;99.90
20998;DHT22;10657;51.276;6.390;2023-02-03T16:09:31;9.50;99.90
20998;DHT22;10657;51.276;6.390;2023-02-03T16:14:40;9.50;99.90
20998;DHT22;10657;51.276;6.390;2023-02-03T16:17:33;9.50;99.90
20998;DHT22;10657;51.276;6.390;2023-02-03T16:23:16;9.50;99.90
20998;DHT22;10657;51.276;6.390;2023-02-03T16:25:32;9.50;99.90
20998;DHT22;10657;51.276;6.390;2023-02-03T16:31:14;9.50;99.90
20998;DHT22;10657;51.276;6.390;2023-02-03T16:34:04;9.50;99.90
20998;DHT22;10657;51.276;6.390;2023-02-03T16:36:58;9.40;99.90
20998;DHT22;10657;51.276;6.390;2023-02-03T16:39:43;9.40;99.90
20998;DHT22;10657;51.276;6.390;2023-02-03T16:42:36;9.40;99.90
20998;DHT22;10657;51.276;6.390;2023-02-03T16:45:22;9.40;99.90
20998;DHT22;10657;51.276;6.390;2023-02-03T16:48:11;9.40;99.90
20998;DHT22;10657;51.276;6.390;2023-02-03T16:51:03;9.40;99.90
20998;DHT22;10657;51.276;6.390;2023-02-03T16:53:31;9.30;99.90
20998;DHT22;10657;51.276;6.390;2023-02-03T16:56:00;9.30;99.90
20998;DHT22;10657;51.276;6.390;2023-02-03T16:58:27;9.30;99.90
20998;DHT22;10657;51.276;6.390;2023-02-03T17:00:56;9.30;99.90
20998;DHT22;10657;51.276;6.390;2023-02-03T17:03:24;9.30;99.90
20998;DHT22;10657;51.276;6.390;2023-02-03T17:05:53;9.30;99.90
20998;DHT22;10657;51.276;6.390;2023-02-03T17:08:23;9.20;99.90
20998;DHT22;10657;51.276;6.390;2023-02-03T17:10:50;9.20;99.90
20998;DHT22;10657;51.276;6.390;2023-02-03T17:13:19;9.30;99.90
20998;DHT22;10657;51.276;6.390;2023-02-03T17:15:48;9.20;99.90
20998;DHT22;10657;51.276;6.390;2023-02-03T17:18:15;9.20;99.90
20998;DHT22;10657;51.276;6.390;2023-02-03T17:20:43;9.20;99.90
20998;DHT22;10657;51.276;6.390;2023-02-03T17:23:11;9.20;99.90
20998;DHT22;10657;51.276;6.390;2023-02-03T17:25:38;9.20;99.90
20998;DHT22;10657;51.276;6.390;2023-02-03T17:28:06;9.20;99.90
20998;DHT22;10657;51.276;6.390;2023-02-03T17:30:34;9.10;99.90
20998;DHT22;10657;51.276;6.390;2023-02-03T17:33:01;9.10;99.90
20998;DHT22;10657;51.276;6.390;2023-02-03T17:35:28;9.10;99.90
20998;DHT22;10657;51.276;6.390;2023-02-03T17:37:55;9.20;99.90
20998;DHT22;10657;51.276;6.390;2023-02-03T17:40:22;9.10;99.90
20998;DHT22;10657;51.276;6.390;2023-02-03T17:43:07;9.20;99.90
20998;DHT22;10657;51.276;6.390;2023-02-03T17:45:51;9.10;99.90
20998;DHT22;10657;51.276;6.390;2023-02-03T17:48:35;9.20;99.90
20998;DHT22;10657;51.276;6.390;2023-02-03T17:51:22;9.10;99.90
20998;DHT22;10657;51.276;6.390;2023-02-03T17:54:10;9.10;99.90
20998;DHT22;10657;51.276;6.390;2023-02-03T17:56:37;9.10;99.90
20998;DHT22;10657;51.276;6.390;2023-02-03T17:59:04;9.10;99.90
20998;DHT22;10657;51.276;6.390;2023-02-03T18:01:31;9.10;99.90
20998;DHT22;10657;51.276;6.390;2023-02-03T18:04:00;9.00;99.90
20998;DHT22;10657;51.276;6.390;2023-02-03T18:06:28;9.00;99.90
20998;DHT22;10657;51.276;6.390;2023-02-03T18:08:55;9.00;99.90
20998;DHT22;10657;51.276;6.390;2023-02-03T18:11:27;9.10;99.90
20998;DHT22;10657;51.276;6.390;2023-02-03T18:13:55;9.00;99.90
20998;DHT22;10657;51.276;6.390;2023-02-03T18:16:24;9.00;99.90
20998;DHT22;10657;51.276;6.390;2023-02-03T18:18:52;9.00;99.90
20998;DHT22;10657;51.276;6.390;2023-02-03T18:21:21;9.00;99.90
20998;DHT22;10657;51.276;6.390;2023-02-03T18:23:48;9.00;99.90
20998;DHT22;10657;51.276;6.390;2023-02-03T18:26:18;9.10;99.90
20998;DHT22;10657;51.276;6.390;2023-02-03T18:28:45;9.10;99.90
20998;DHT22;10657;51.276;6.390;2023-02-03T18:31:14;9.10;99.90
20998;DHT22;10657;51.276;6.390;2023-02-03T18:33:43;9.10;99.90
20998;DHT22;10657;51.276;6.390;2023-02-03T18:36:12;9.10;99.90
20998;DHT22;10657;51.276;6.390;2023-02-03T18:38:41;9.10;99.90
20998;DHT22;10657;51.276;6.390;2023-02-03T18:41:19;9.10;99.90
20998;DHT22;10657;51.276;6.390;2023-02-03T18:43:47;9.10;99.90
20998;DHT22;10657;51.276;6.390;2023-02-03T18:46:26;9.10;99.90
20998;DHT22;10657;51.276;6.390;2023-02-03T18:48:53;9.10;99.90
20998;DHT22;10657;51.276;6.390;2023-02-03T18:51:22;9.10;99.90